createdAt,value
2023-09-06T00:01:51.005Z,2.55
2023-09-06T00:04:17.573Z,3.45
2023-09-06T00:06:44.005Z,2.50
2023-09-06T00:09:11.664Z,2.40
2023-09-06T00:11:38.006Z,4.00
2023-09-06T00:14:04.695Z,2.78
2023-09-06T00:16:31.164Z,3.08
2023-09-06T00:19:00.787Z,3.17
2023-09-06T00:21:28.330Z,2.35
2023-09-06T00:23:54.738Z,3.42
2023-09-06T00:26:21.028Z,2.50
2023-09-06T00:28:47.391Z,4.03
2023-09-06T00:31:13.773Z,2.60
2023-09-06T00:33:40.195Z,3.67
2023-09-06T00:36:07.924Z,4.50
2023-09-06T00:38:34.239Z,3.15
2023-09-06T00:41:00.572Z,3.05
2023-09-06T00:43:26.825Z,4.10
2023-09-06T00:45:54.565Z,2.35
2023-09-06T00:48:22.640Z,2.70
2023-09-06T00:50:52.759Z,3.85
2023-09-06T00:53:19.564Z,3.17
2023-09-06T00:55:46.229Z,2.70
2023-09-06T00:58:16.746Z,3.58
2023-09-06T01:00:50.028Z,5.93
2023-09-06T01:03:17.230Z,3.33
2023-09-06T01:05:59.264Z,3.20
2023-09-06T01:08:29.927Z,3.13
2023-09-06T01:11:11.299Z,4.15
2023-09-06T01:13:37.559Z,4.80
2023-09-06T01:16:04.025Z,3.38
2023-09-06T01:18:30.719Z,3.20
2023-09-06T01:20:59.944Z,5.03
2023-09-06T01:23:37.019Z,3.42
2023-09-06T01:26:03.725Z,3.95
2023-09-06T01:28:30.464Z,3.40
2023-09-06T01:30:57.509Z,3.25
2023-09-06T01:33:24.224Z,3.45
2023-09-06T01:35:50.738Z,2.70
2023-09-06T01:38:17.000Z,3.33
2023-09-06T01:40:43.966Z,4.45
2023-09-06T01:43:10.294Z,2.92
2023-09-06T01:45:38.159Z,2.90
2023-09-06T01:48:04.589Z,3.05
2023-09-06T01:50:31.175Z,2.75
2023-09-06T01:52:58.249Z,4.18
2023-09-06T01:55:24.623Z,4.03
2023-09-06T01:57:50.943Z,3.30
2023-09-06T02:00:28.454Z,4.22
2023-09-06T02:03:01.400Z,3.17
2023-09-06T02:05:27.776Z,5.03
2023-09-06T02:07:54.095Z,2.97
2023-09-06T02:10:20.393Z,2.97
2023-09-06T02:12:46.817Z,3.70
2023-09-06T02:15:16.368Z,3.60
2023-09-06T02:17:43.522Z,3.25
2023-09-06T02:20:14.612Z,3.65
2023-09-06T02:22:41.925Z,3.15
2023-09-06T02:25:09.374Z,5.60
2023-09-06T02:27:36.139Z,3.00
2023-09-06T02:30:06.014Z,4.65
2023-09-06T02:32:33.358Z,2.85
2023-09-06T02:34:59.833Z,4.10
2023-09-06T02:37:26.286Z,3.28
2023-09-06T02:39:55.403Z,2.85
2023-09-06T02:42:22.118Z,2.92
2023-09-06T02:44:48.514Z,5.30
2023-09-06T02:47:18.448Z,5.07
2023-09-06T02:49:46.893Z,4.13
2023-09-06T02:52:21.659Z,4.97
2023-09-06T02:54:50.883Z,4.25
2023-09-06T02:57:18.193Z,2.90
2023-09-06T02:59:44.546Z,2.97
2023-09-06T03:02:13.769Z,3.30
2023-09-06T03:04:41.973Z,4.55
2023-09-06T03:07:11.309Z,4.20
2023-09-06T03:09:39.985Z,4.32
2023-09-06T03:12:13.040Z,3.92
2023-09-06T03:14:44.675Z,3.30
2023-09-06T03:17:11.497Z,2.97
2023-09-06T03:19:42.116Z,3.63
2023-09-06T03:22:10.469Z,3.17
2023-09-06T03:24:41.440Z,3.90
2023-09-06T03:27:08.992Z,5.82
2023-09-06T03:29:37.717Z,5.10
2023-09-06T03:32:10.523Z,3.10
2023-09-06T03:34:37.555Z,3.30
2023-09-06T03:37:06.844Z,5.68
2023-09-06T03:39:33.330Z,3.47
2023-09-06T03:42:02.431Z,2.97
2023-09-06T03:44:32.590Z,3.10
2023-09-06T03:46:59.065Z,2.92
2023-09-06T03:49:30.499Z,3.20
2023-09-06T03:51:57.358Z,3.58
2023-09-06T03:54:25.269Z,5.45
2023-09-06T03:56:51.595Z,5.53
2023-09-06T03:59:17.891Z,4.45
2023-09-06T04:01:45.351Z,3.85
2023-09-06T04:04:14.269Z,3.45
2023-09-06T04:06:44.223Z,3.45
2023-09-06T04:09:14.109Z,3.78
2023-09-06T04:11:41.424Z,4.18
2023-09-06T04:14:09.141Z,5.28
2023-09-06T04:16:36.985Z,3.40
2023-09-06T04:19:03.332Z,3.58
2023-09-06T04:21:29.647Z,3.72
2023-09-06T04:23:56.157Z,4.50
2023-09-06T04:26:22.461Z,3.38
2023-09-06T04:28:49.090Z,5.38
2023-09-06T04:31:18.727Z,4.25
2023-09-06T04:33:46.071Z,3.42
2023-09-06T04:36:12.457Z,13.02
2023-09-06T04:38:38.833Z,4.55
2023-09-06T04:41:05.367Z,4.70
2023-09-06T04:43:31.698Z,5.10
2023-09-06T04:45:59.163Z,4.13
2023-09-06T04:48:25.658Z,4.13
2023-09-06T04:50:52.058Z,4.78
2023-09-06T04:53:19.360Z,4.20
2023-09-06T04:55:47.847Z,7.85
2023-09-06T04:58:15.055Z,6.18
2023-09-06T05:00:44.504Z,5.32
2023-09-06T05:03:14.057Z,4.65
2023-09-06T05:05:42.297Z,5.50
2023-09-06T05:08:09.095Z,5.28
2023-09-06T05:10:38.576Z,4.90
2023-09-06T05:13:08.801Z,4.78
2023-09-06T05:15:36.849Z,3.80
2023-09-06T05:18:04.197Z,4.05
2023-09-06T05:20:34.258Z,3.83
2023-09-06T05:23:02.216Z,3.97
2023-09-06T05:25:28.549Z,5.72
2023-09-06T05:27:56.906Z,4.38
2023-09-06T05:30:23.251Z,6.72
2023-09-06T05:32:49.704Z,5.20
2023-09-06T05:35:16.126Z,4.13
2023-09-06T05:37:42.645Z,5.38
2023-09-06T05:40:09.642Z,4.07
2023-09-06T05:42:36.182Z,5.18
2023-09-06T05:45:03.481Z,5.35
2023-09-06T05:47:31.162Z,4.75
2023-09-06T05:49:59.072Z,4.13
2023-09-06T05:52:25.511Z,7.20
2023-09-06T05:54:53.270Z,6.20
2023-09-06T05:57:20.978Z,6.28
2023-09-06T05:59:47.329Z,4.43
2023-09-06T06:02:15.955Z,5.70
2023-09-06T06:04:42.855Z,4.93
2023-09-06T06:07:09.405Z,4.13
2023-09-06T06:09:35.703Z,4.07
2023-09-06T06:12:04.722Z,2.90
2023-09-06T06:14:31.284Z,3.65
2023-09-06T06:16:58.529Z,3.65
2023-09-06T06:19:25.132Z,2.78
2023-09-06T06:21:51.756Z,2.92
2023-09-06T06:24:18.305Z,5.13
2023-09-06T06:26:44.674Z,3.10
2023-09-06T06:29:11.060Z,3.55
2023-09-06T06:31:37.647Z,4.93
2023-09-06T06:34:04.092Z,5.45
2023-09-06T06:36:31.420Z,3.22
2023-09-06T06:38:57.787Z,4.28
2023-09-06T06:41:24.448Z,6.50
2023-09-06T06:43:50.920Z,3.85
2023-09-06T06:46:30.170Z,3.97
2023-09-06T06:48:57.896Z,4.20
2023-09-06T06:51:27.761Z,3.00
2023-09-06T06:53:54.072Z,3.50
2023-09-06T06:56:22.722Z,8.50
2023-09-06T06:58:49.407Z,5.43
2023-09-06T07:01:16.074Z,2.92
2023-09-06T07:03:42.490Z,3.42
2023-09-06T07:06:09.186Z,2.83
2023-09-06T07:08:38.269Z,6.10
2023-09-06T07:11:06.030Z,3.42
2023-09-06T07:13:32.465Z,3.63
2023-09-06T07:15:58.902Z,3.45
2023-09-06T07:18:25.583Z,4.13
2023-09-06T07:20:52.055Z,2.72
2023-09-06T07:23:18.722Z,5.47
2023-09-06T07:25:45.490Z,3.22
2023-09-06T07:28:11.827Z,4.00
2023-09-06T07:30:38.132Z,2.95
2023-09-06T07:33:04.503Z,3.50
2023-09-06T07:35:32.671Z,3.60
2023-09-06T07:38:00.195Z,3.42
2023-09-06T07:40:26.665Z,2.70
2023-09-06T07:42:53.126Z,2.90
2023-09-06T07:45:19.731Z,4.40
2023-09-06T07:47:46.695Z,4.07
2023-09-06T07:50:13.123Z,2.78
2023-09-06T07:52:39.468Z,2.92
2023-09-06T07:55:06.181Z,3.50
2023-09-06T07:57:32.465Z,7.47
2023-09-06T07:59:58.728Z,2.67
2023-09-06T08:02:25.049Z,3.95
2023-09-06T08:04:54.337Z,3.72
2023-09-06T08:07:22.522Z,3.15
2023-09-06T08:09:48.863Z,2.30
2023-09-06T08:12:15.181Z,2.85
2023-09-06T08:14:43.096Z,3.72
2023-09-06T08:17:09.556Z,3.00
2023-09-06T08:19:35.877Z,2.78
2023-09-06T08:22:02.158Z,2.63
2023-09-06T08:24:32.033Z,2.65
2023-09-06T08:26:58.538Z,3.33
2023-09-06T08:29:24.881Z,5.07
2023-09-06T08:31:51.616Z,3.20
2023-09-06T08:34:18.009Z,3.22
2023-09-06T08:36:44.264Z,3.95
2023-09-06T08:39:10.561Z,2.80
2023-09-06T08:41:36.836Z,4.63
2023-09-06T08:44:04.712Z,4.10
2023-09-06T08:46:31.869Z,2.97
2023-09-06T08:48:59.215Z,4.70
2023-09-06T08:51:26.386Z,3.50
2023-09-06T08:53:53.419Z,3.85
2023-09-06T08:56:20.293Z,6.18
2023-09-06T08:58:46.630Z,3.38
2023-09-06T09:01:13.230Z,4.10
2023-09-06T09:03:39.698Z,5.18
2023-09-06T09:06:10.068Z,2.70
2023-09-06T09:08:36.659Z,4.60
2023-09-06T09:11:08.945Z,3.33
2023-09-06T09:13:35.324Z,2.78
2023-09-06T09:16:08.793Z,3.63
2023-09-06T09:18:36.058Z,3.03
2023-09-06T09:21:04.176Z,5.60
2023-09-06T09:23:31.692Z,3.22
2023-09-06T09:25:58.278Z,4.25
2023-09-06T09:28:24.647Z,4.30
2023-09-06T09:30:52.086Z,4.45
2023-09-06T09:33:19.664Z,3.38
2023-09-06T09:35:48.548Z,3.88
2023-09-06T09:38:14.969Z,3.10
2023-09-06T09:40:52.770Z,3.30
2023-09-06T09:43:20.928Z,3.08
2023-09-06T09:45:48.516Z,3.45
2023-09-06T09:48:16.176Z,5.18
2023-09-06T09:50:43.336Z,2.75
2023-09-06T09:53:20.541Z,5.25
2023-09-06T09:55:48.516Z,4.70
2023-09-06T09:58:15.968Z,4.00
2023-09-06T10:00:42.846Z,3.17
2023-09-06T10:03:10.470Z,3.72
2023-09-06T10:05:37.182Z,3.35
2023-09-06T10:08:06.099Z,3.30
2023-09-06T10:10:33.891Z,4.60
2023-09-06T10:13:05.523Z,4.43
2023-09-06T10:15:33.620Z,3.75
2023-09-06T10:18:00.263Z,3.20
2023-09-06T10:20:28.141Z,4.07
2023-09-06T10:22:56.503Z,4.18
2023-09-06T10:25:23.023Z,3.35
2023-09-06T10:27:50.373Z,3.20
2023-09-06T10:30:20.233Z,3.33
2023-09-06T10:32:47.424Z,4.00
2023-09-06T10:35:20.896Z,3.67
2023-09-06T10:38:03.608Z,3.92
2023-09-06T10:40:54.751Z,3.28
2023-09-06T10:43:21.089Z,3.58
2023-09-06T10:45:57.367Z,3.58
2023-09-06T10:48:24.165Z,3.13
2023-09-06T10:51:07.934Z,3.35
2023-09-06T10:53:34.902Z,6.15
2023-09-06T10:56:03.549Z,3.60
2023-09-06T10:58:33.141Z,4.43
2023-09-06T11:01:19.224Z,4.18
2023-09-06T11:03:51.369Z,2.97
2023-09-06T11:06:19.916Z,4.90
2023-09-06T11:08:47.191Z,4.13
2023-09-06T11:11:15.262Z,3.63
2023-09-06T11:13:43.026Z,4.28
2023-09-06T11:16:14.572Z,3.05
2023-09-06T11:18:44.863Z,5.60
2023-09-06T11:21:11.308Z,3.17
2023-09-06T11:23:44.589Z,4.97
2023-09-06T11:26:10.883Z,3.55
2023-09-06T11:28:39.474Z,3.55
2023-09-06T11:31:06.450Z,3.80
2023-09-06T11:33:33.031Z,3.78
2023-09-06T11:36:04.285Z,4.45
2023-09-06T11:38:35.614Z,3.70
2023-09-06T11:41:04.868Z,4.45
2023-09-06T11:43:34.893Z,4.07
2023-09-06T11:46:05.378Z,3.55
2023-09-06T11:48:33.307Z,3.83
2023-09-06T11:51:09.278Z,3.95
2023-09-06T11:53:39.047Z,5.80
2023-09-06T11:56:08.884Z,4.90
2023-09-06T11:58:50.590Z,4.13
2023-09-06T12:01:20.858Z,4.53
2023-09-06T12:03:48.608Z,3.75
2023-09-06T12:06:15.190Z,3.88
2023-09-06T12:08:42.838Z,4.65
2023-09-06T12:11:12.312Z,5.53
2023-09-06T12:13:39.661Z,4.22
2023-09-06T12:16:07.947Z,3.85
2023-09-06T12:18:35.672Z,3.10
2023-09-06T12:21:03.932Z,5.78
2023-09-06T12:23:30.952Z,3.83
2023-09-06T12:25:58.142Z,3.58
2023-09-06T12:28:24.881Z,6.75
2023-09-06T12:30:56.365Z,4.45
2023-09-06T12:33:23.402Z,4.15
2023-09-06T12:36:00.480Z,4.38
2023-09-06T12:38:27.500Z,4.57
2023-09-06T12:40:54.324Z,4.25
2023-09-06T12:43:22.109Z,3.97
2023-09-06T12:45:48.890Z,3.72
2023-09-06T12:48:15.761Z,5.15
2023-09-06T12:50:42.111Z,5.13
2023-09-06T12:53:11.788Z,4.00
2023-09-06T12:55:38.535Z,5.63
2023-09-06T12:58:05.312Z,3.80
2023-09-06T13:00:31.622Z,4.10
2023-09-06T13:02:58.016Z,4.30
2023-09-06T13:05:24.486Z,5.13
2023-09-06T13:07:50.891Z,4.50
2023-09-06T13:10:17.217Z,5.13
2023-09-06T13:12:45.381Z,3.85
2023-09-06T13:15:11.997Z,4.05
2023-09-06T13:17:38.433Z,5.72
2023-09-06T13:20:11.844Z,3.67
2023-09-06T13:22:38.844Z,3.65
2023-09-06T13:25:07.247Z,4.97
2023-09-06T13:27:36.885Z,4.63
2023-09-06T13:30:04.144Z,4.10
2023-09-06T13:32:30.454Z,3.90
2023-09-06T13:34:56.859Z,4.30
2023-09-06T13:37:23.497Z,3.47
2023-09-06T13:39:50.728Z,4.03
2023-09-06T13:42:18.160Z,7.88
2023-09-06T13:44:44.736Z,4.53
2023-09-06T13:47:11.367Z,4.10
2023-09-06T13:49:38.137Z,4.30
2023-09-06T13:52:05.872Z,4.55
2023-09-06T13:54:32.248Z,4.35
2023-09-06T13:56:58.546Z,3.90
2023-09-06T13:59:24.891Z,6.07
2023-09-06T14:01:51.257Z,5.38
2023-09-06T14:04:17.663Z,5.50
2023-09-06T14:06:44.078Z,5.22
2023-09-06T14:09:11.575Z,4.15
2023-09-06T14:11:38.515Z,4.60
2023-09-06T14:14:05.552Z,4.82
2023-09-06T14:16:32.577Z,5.40
2023-09-06T14:18:59.314Z,4.93
2023-09-06T14:21:25.686Z,4.93
2023-09-06T14:23:52.473Z,3.95
2023-09-06T14:26:18.904Z,4.20
2023-09-06T14:28:45.373Z,4.43
2023-09-06T14:31:12.453Z,4.88
2023-09-06T14:33:39.267Z,4.00
2023-09-06T14:36:06.035Z,5.50
2023-09-06T14:38:32.561Z,3.75
2023-09-06T14:40:59.193Z,4.13
2023-09-06T14:43:25.808Z,4.53
2023-09-06T14:45:52.358Z,4.82
2023-09-06T14:48:18.764Z,4.80
2023-09-06T14:50:45.127Z,4.07
2023-09-06T14:53:12.228Z,4.47
2023-09-06T14:55:38.569Z,6.25
2023-09-06T14:58:05.206Z,4.38
2023-09-06T15:00:31.634Z,5.38
2023-09-06T15:02:58.036Z,4.65
2023-09-06T15:05:24.582Z,4.72
2023-09-06T15:07:50.854Z,4.07
2023-09-06T15:10:17.130Z,3.58
2023-09-06T15:12:44.836Z,4.25
2023-09-06T15:15:12.319Z,3.47
2023-09-06T15:17:38.843Z,4.30
2023-09-06T15:20:07.689Z,6.88
2023-09-06T15:22:39.106Z,3.42
2023-09-06T15:25:06.947Z,4.55
2023-09-06T15:27:33.655Z,4.05
2023-09-06T15:30:00.025Z,3.63
2023-09-06T15:32:26.416Z,3.42
2023-09-06T15:34:53.033Z,3.70
2023-09-06T15:37:20.535Z,4.15
2023-09-06T15:39:46.827Z,4.40
2023-09-06T15:42:13.247Z,3.90
2023-09-06T15:44:39.936Z,4.35
2023-09-06T15:47:06.249Z,4.63
2023-09-06T15:49:32.583Z,3.63
2023-09-06T15:51:59.043Z,5.25
2023-09-06T15:54:25.874Z,4.05
2023-09-06T15:56:52.547Z,6.00
2023-09-06T15:59:19.822Z,5.38
2023-09-06T16:01:46.670Z,3.80
2023-09-06T16:04:13.615Z,3.75
2023-09-06T16:06:39.969Z,4.35
2023-09-06T16:09:09.826Z,3.75
2023-09-06T16:11:36.674Z,4.72
2023-09-06T16:14:04.809Z,4.72
2023-09-06T16:16:31.517Z,4.20
2023-09-06T16:18:57.868Z,6.35
2023-09-06T16:21:24.161Z,4.93
2023-09-06T16:23:50.628Z,4.13
2023-09-06T16:26:17.046Z,4.15
2023-09-06T16:28:43.374Z,3.88
2023-09-06T16:31:09.697Z,4.32
2023-09-06T16:33:36.759Z,3.80
2023-09-06T16:36:07.563Z,5.30
2023-09-06T16:38:34.500Z,4.45
2023-09-06T16:41:00.977Z,4.32
2023-09-06T16:43:27.316Z,3.90
2023-09-06T16:45:57.234Z,4.03
2023-09-06T16:48:23.737Z,4.15
2023-09-06T16:50:50.042Z,4.70
2023-09-06T16:53:20.053Z,4.18
2023-09-06T16:55:47.645Z,3.97
2023-09-06T16:58:13.957Z,5.25
2023-09-06T17:00:42.538Z,5.07
2023-09-06T17:03:09.233Z,3.92
2023-09-06T17:05:35.928Z,4.32
2023-09-06T17:08:02.653Z,4.47
2023-09-06T17:10:30.952Z,4.38
2023-09-06T17:12:57.456Z,5.68
2023-09-06T17:15:24.718Z,6.82
2023-09-06T17:17:51.357Z,5.78
2023-09-06T17:20:19.053Z,4.45
2023-09-06T17:22:46.807Z,4.20
2023-09-06T17:25:13.349Z,4.95
2023-09-06T17:27:43.250Z,4.57
2023-09-06T17:30:22.218Z,3.77
2023-09-06T17:33:02.361Z,5.50
2023-09-06T17:35:29.335Z,6.03
2023-09-06T17:37:56.023Z,5.18
2023-09-06T17:40:22.470Z,6.00
2023-09-06T17:42:48.891Z,5.13
2023-09-06T17:45:16.221Z,4.68
2023-09-06T17:47:43.318Z,7.60
2023-09-06T17:50:10.920Z,6.97
2023-09-06T17:52:38.503Z,5.28
2023-09-06T17:55:08.163Z,9.55
2023-09-06T17:57:34.539Z,6.97
2023-09-06T18:00:01.035Z,8.00
2023-09-06T18:02:28.219Z,5.88
2023-09-06T18:04:54.885Z,5.55
2023-09-06T18:07:22.349Z,5.47
2023-09-06T18:09:49.152Z,5.32
2023-09-06T18:12:16.958Z,6.30
2023-09-06T18:14:43.540Z,5.10
2023-09-06T18:17:10.162Z,4.30
2023-09-06T18:19:36.526Z,4.85
2023-09-06T18:22:02.802Z,5.90
2023-09-06T18:24:30.586Z,7.50
2023-09-06T18:27:07.590Z,6.20
2023-09-06T18:29:35.093Z,7.32
2023-09-06T18:32:01.396Z,6.80
2023-09-06T18:34:27.722Z,7.10
2023-09-06T18:36:54.113Z,7.85
2023-09-06T18:39:20.403Z,8.32
2023-09-06T18:41:46.755Z,6.30
2023-09-06T18:44:13.083Z,5.88
2023-09-06T18:46:40.133Z,5.35
2023-09-06T18:49:08.262Z,6.07
2023-09-06T18:51:34.860Z,6.35
2023-09-06T18:54:01.332Z,6.40
2023-09-06T18:56:27.715Z,7.38
2023-09-06T18:58:54.072Z,5.20
2023-09-06T19:01:21.332Z,6.72
2023-09-06T19:03:47.770Z,5.47
2023-09-06T19:06:14.843Z,7.65
2023-09-06T19:08:41.983Z,7.55
2023-09-06T19:11:08.530Z,7.22
2023-09-06T19:13:34.814Z,8.18
2023-09-06T19:16:01.193Z,8.95
2023-09-06T19:18:27.767Z,6.57
2023-09-06T19:20:55.227Z,6.10
2023-09-06T19:23:21.841Z,6.63
2023-09-06T19:25:55.869Z,6.70
2023-09-06T19:28:22.982Z,6.03
2023-09-06T19:30:54.912Z,6.75
2023-09-06T19:33:21.401Z,10.60
2023-09-06T19:35:47.774Z,6.93
2023-09-06T19:38:15.051Z,7.70
2023-09-06T19:40:41.464Z,7.28
2023-09-06T19:43:07.832Z,7.50
2023-09-06T19:45:34.503Z,7.50
2023-09-06T19:48:00.907Z,8.60
2023-09-06T19:50:29.938Z,9.02
2023-09-06T19:52:57.437Z,6.30
2023-09-06T19:55:23.752Z,6.28
2023-09-06T19:57:50.185Z,6.82
2023-09-06T20:00:16.730Z,7.10
2023-09-06T20:02:43.695Z,8.25
2023-09-06T20:05:10.730Z,6.95
2023-09-06T20:07:38.337Z,7.25
2023-09-06T20:10:05.493Z,7.88
2023-09-06T20:12:31.822Z,9.43
2023-09-06T20:14:58.307Z,9.52
2023-09-06T20:17:24.742Z,8.25
2023-09-06T20:19:51.145Z,10.98
2023-09-06T20:22:17.598Z,7.95
2023-09-06T20:24:43.881Z,7.03
2023-09-06T20:27:10.274Z,8.90
2023-09-06T20:29:36.634Z,7.68
2023-09-06T20:32:03.085Z,8.82
2023-09-06T20:34:29.523Z,9.52
2023-09-06T20:36:55.901Z,9.10
2023-09-06T20:39:22.423Z,7.70
2023-09-06T20:41:48.997Z,6.53
2023-09-06T20:44:15.451Z,7.45
2023-09-06T20:46:42.186Z,8.13
2023-09-06T20:49:08.778Z,9.02
2023-09-06T20:51:35.220Z,9.57
2023-09-06T20:54:01.554Z,7.18
2023-09-06T20:56:27.909Z,7.05
2023-09-06T20:58:54.245Z,8.38
2023-09-06T21:01:21.028Z,7.75
2023-09-06T21:03:47.764Z,8.85
2023-09-06T21:06:14.378Z,9.90
2023-09-06T21:08:40.834Z,8.50
2023-09-06T21:11:07.238Z,7.60
2023-09-06T21:13:36.553Z,8.88
2023-09-06T21:16:03.234Z,9.57
2023-09-06T21:18:30.816Z,8.32
2023-09-06T21:20:57.922Z,9.00
2023-09-06T21:23:24.318Z,8.65
2023-09-06T21:25:50.662Z,9.15
2023-09-06T21:28:17.335Z,9.23
2023-09-06T21:30:46.813Z,12.15
2023-09-06T21:33:13.568Z,9.20
2023-09-06T21:35:48.987Z,9.52
2023-09-06T21:38:15.307Z,8.02
2023-09-06T21:40:42.715Z,9.93
2023-09-06T21:43:17.723Z,8.32
2023-09-06T21:45:45.046Z,9.13
2023-09-06T21:48:12.934Z,8.95
2023-09-06T21:50:40.571Z,10.10
2023-09-06T21:53:07.584Z,6.88
2023-09-06T21:55:33.959Z,7.57
2023-09-06T21:58:08.883Z,6.95
2023-09-06T22:00:36.640Z,8.32
2023-09-06T22:03:03.207Z,8.43
2023-09-06T22:05:29.639Z,7.82
2023-09-06T22:07:55.957Z,9.40
2023-09-06T22:10:22.277Z,8.50
2023-09-06T22:12:48.773Z,8.30
2023-09-06T22:15:15.330Z,8.73
2023-09-06T22:17:41.957Z,9.52
2023-09-06T22:20:08.419Z,8.88
2023-09-06T22:22:37.457Z,8.63
2023-09-06T22:25:04.739Z,8.57
2023-09-06T22:27:31.177Z,8.60
2023-09-06T22:29:57.469Z,8.10
2023-09-06T22:32:23.845Z,7.32
2023-09-06T22:34:50.214Z,8.98
2023-09-06T22:37:16.512Z,7.28
2023-09-06T22:39:42.862Z,6.63
2023-09-06T22:42:09.700Z,8.95
2023-09-06T22:44:37.226Z,7.10
2023-09-06T22:47:03.953Z,9.80
2023-09-06T22:49:30.444Z,8.63
2023-09-06T22:51:56.926Z,8.00
2023-09-06T22:54:23.352Z,8.80
2023-09-06T22:56:49.670Z,7.88
2023-09-06T22:59:16.735Z,8.10
2023-09-06T23:01:43.339Z,7.88
2023-09-06T23:04:09.852Z,8.63
2023-09-06T23:06:36.951Z,8.50
2023-09-06T23:09:07.800Z,8.65
2023-09-06T23:11:35.441Z,9.75
2023-09-06T23:14:04.101Z,7.43
2023-09-06T23:16:30.483Z,7.32
2023-09-06T23:18:57.992Z,9.32
2023-09-06T23:21:26.852Z,8.70
2023-09-06T23:23:57.978Z,6.70
2023-09-06T23:26:31.322Z,8.80
2023-09-06T23:28:59.300Z,7.80
2023-09-06T23:31:27.213Z,8.45
2023-09-06T23:33:55.765Z,9.27
2023-09-06T23:36:24.726Z,8.85
2023-09-06T23:38:53.327Z,6.63
2023-09-06T23:41:24.033Z,8.23
2023-09-06T23:43:50.540Z,7.73
2023-09-06T23:46:18.763Z,7.35
2023-09-06T23:48:46.136Z,7.28
2023-09-06T23:51:12.410Z,6.30
2023-09-06T23:53:40.431Z,7.45
2023-09-06T23:56:07.773Z,7.05
2023-09-06T23:58:34.423Z,7.22
